sensor_id;sensor_type;location;lat;lon;timestamp;pressure;altitude;pressure_sealevel;temperature;humidity
10064;BME280;5071;52.360;13.134;2023-08-07T00:04:01;99791.88;;;13.79;100.00
10064;BME280;5071;52.360;13.134;2023-08-07T00:09:04;99794.63;;;13.78;100.00
10064;BME280;5071;52.360;13.134;2023-08-07T00:14:06;99786.63;;;13.78;100.00
10064;BME280;5071;52.360;13.134;2023-08-07T00:19:09;99785.56;;;13.82;100.00
10064;BME280;5071;52.360;13.134;2023-08-07T00:24:12;99776.44;;;13.88;100.00
10064;BME280;5071;52.360;13.134;2023-08-07T00:29:14;99784.97;;;13.96;100.00
10064;BME280;5071;52.360;13.134;2023-08-07T00:34:16;99785.31;;;14.09;100.00
10064;BME280;5071;52.360;13.134;2023-08-07T00:39:20;99783.19;;;14.17;100.00
10064;BME280;5071;52.360;13.134;2023-08-07T00:44:22;99770.84;;;14.35;100.00
10064;BME280;5071;52.360;13.134;2023-08-07T00:49:24;99773.75;;;14.30;100.00
10064;BME280;5071;52.360;13.134;2023-08-07T00:54:28;99763.31;;;14.24;100.00
10064;BME280;5071;52.360;13.134;2023-08-07T00:59:31;99771.06;;;14.51;100.00
10064;BME280;5071;52.360;13.134;2023-08-07T01:04:33;99759.66;;;14.47;100.00
10064;BME280;5071;52.360;13.134;2023-08-07T01:09:37;99770.34;;;14.47;100.00
10064;BME280;5071;52.360;13.134;2023-08-07T01:14:47;99763.19;;;14.27;100.00
10064;BME280;5071;52.360;13.134;2023-08-07T01:19:50;99766.66;;;14.29;100.00
10064;BME280;5071;52.360;13.134;2023-08-07T01:24:53;99767.97;;;14.39;100.00
10064;BME280;5071;52.360;13.134;2023-08-07T01:29:59;99767.19;;;14.37;100.00
10064;BME280;5071;52.360;13.134;2023-08-07T01:35:04;99757.03;;;14.46;100.00
10064;BME280;5071;52.360;13.134;2023-08-07T01:40:09;99756.75;;;14.52;100.00
10064;BME280;5071;52.360;13.134;2023-08-07T01:45:11;99755.59;;;14.59;100.00
10064;BME280;5071;52.360;13.134;2023-08-07T01:50:13;99749.50;;;14.55;100.00
10064;BME280;5071;52.360;13.134;2023-08-07T01:55:18;99742.25;;;14.59;100.00
10064;BME280;5071;52.360;13.134;2023-08-07T02:00:20;99752.63;;;14.65;100.00
10064;BME280;5071;52.360;13.134;2023-08-07T02:05:22;99745.72;;;14.61;100.00
10064;BME280;5071;52.360;13.134;2023-08-07T02:10:26;99746.56;;;14.62;100.00
10064;BME280;5071;52.360;13.134;2023-08-07T02:15:29;99750.91;;;14.64;100.00
10064;BME280;5071;52.360;13.134;2023-08-07T02:20:31;99753.19;;;14.53;100.00
10064;BME280;5071;52.360;13.134;2023-08-07T02:25:34;99762.63;;;14.39;100.00
10064;BME280;5071;52.360;13.134;2023-08-07T02:30:36;99763.97;;;14.50;100.00
10064;BME280;5071;52.360;13.134;2023-08-07T02:35:38;99762.53;;;14.63;100.00
10064;BME280;5071;52.360;13.134;2023-08-07T02:40:42;99772.28;;;14.64;100.00
10064;BME280;5071;52.360;13.134;2023-08-07T02:45:44;99784.69;;;14.65;100.00
10064;BME280;5071;52.360;13.134;2023-08-07T02:50:46;99781.34;;;14.60;100.00
10064;BME280;5071;52.360;13.134;2023-08-07T02:55:50;99777.34;;;14.70;100.00
10064;BME280;5071;52.360;13.134;2023-08-07T03:00:52;99776.41;;;14.71;100.00
10064;BME280;5071;52.360;13.134;2023-08-07T03:05:54;99785.13;;;14.75;100.00
10064;BME280;5071;52.360;13.134;2023-08-07T03:10:58;99784.28;;;14.74;100.00
10064;BME280;5071;52.360;13.134;2023-08-07T03:16:01;99787.63;;;14.80;100.00
10064;BME280;5071;52.360;13.134;2023-08-07T03:21:03;99780.69;;;14.75;100.00
10064;BME280;5071;52.360;13.134;2023-08-07T03:26:09;99789.22;;;14.63;100.00
10064;BME280;5071;52.360;13.134;2023-08-07T03:31:14;99794.22;;;14.50;100.00
10064;BME280;5071;52.360;13.134;2023-08-07T03:36:16;99802.66;;;14.62;100.00
10064;BME280;5071;52.360;13.134;2023-08-07T03:41:20;99804.06;;;14.70;100.00
10064;BME280;5071;52.360;13.134;2023-08-07T03:46:21;99812.81;;;14.74;100.00
10064;BME280;5071;52.360;13.134;2023-08-07T03:51:23;99815.06;;;14.83;100.00
10064;BME280;5071;52.360;13.134;2023-08-07T03:56:27;99812.13;;;14.69;100.00
10064;BME280;5071;52.360;13.134;2023-08-07T04:01:29;99816.06;;;14.81;100.00
10064;BME280;5071;52.360;13.134;2023-08-07T04:06:31;99819.41;;;14.86;100.00
10064;BME280;5071;52.360;13.134;2023-08-07T04:11:35;99823.72;;;14.88;100.00
10064;BME280;5071;52.360;13.134;2023-08-07T04:16:37;99812.53;;;14.80;100.00
10064;BME280;5071;52.360;13.134;2023-08-07T04:21:39;99817.41;;;14.91;100.00
10064;BME280;5071;52.360;13.134;2023-08-07T04:26:42;99817.31;;;14.92;100.00
10064;BME280;5071;52.360;13.134;2023-08-07T04:31:44;99819.84;;;14.95;100.00
10064;BME280;5071;52.360;13.134;2023-08-07T04:36:46;99817.09;;;14.97;100.00
10064;BME280;5071;52.360;13.134;2023-08-07T04:41:49;99817.72;;;15.23;100.00
10064;BME280;5071;52.360;13.134;2023-08-07T04:46:51;99819.59;;;15.21;100.00
10064;BME280;5071;52.360;13.134;2023-08-07T04:51:53;99824.78;;;15.43;100.00
10064;BME280;5071;52.360;13.134;2023-08-07T04:56:56;99828.53;;;15.58;100.00
10064;BME280;5071;52.360;13.134;2023-08-07T05:01:59;99827.97;;;15.89;100.00
10064;BME280;5071;52.360;13.134;2023-08-07T05:07:01;99832.28;;;15.72;100.00
10064;BME280;5071;52.360;13.134;2023-08-07T05:12:05;99837.25;;;16.36;97.90
10064;BME280;5071;52.360;13.134;2023-08-07T05:17:08;99841.16;;;15.93;99.81
10064;BME280;5071;52.360;13.134;2023-08-07T05:22:10;99847.63;;;15.69;100.00
10064;BME280;5071;52.360;13.134;2023-08-07T05:27:14;99854.44;;;16.49;97.10
10064;BME280;5071;52.360;13.134;2023-08-07T05:32:16;99860.59;;;18.46;87.78
10064;BME280;5071;52.360;13.134;2023-08-07T05:37:18;99854.03;;;19.54;80.84
10064;BME280;5071;52.360;13.134;2023-08-07T05:42:22;99856.72;;;19.83;78.75
10064;BME280;5071;52.360;13.134;2023-08-07T05:47:24;99870.53;;;20.73;74.14
10064;BME280;5071;52.360;13.134;2023-08-07T05:52:26;99868.06;;;22.80;66.48
10064;BME280;5071;52.360;13.134;2023-08-07T05:57:30;99875.06;;;21.62;67.95
10064;BME280;5071;52.360;13.134;2023-08-07T06:02:32;99872.19;;;22.50;65.08
10064;BME280;5071;52.360;13.134;2023-08-07T06:07:34;99876.34;;;22.79;65.03
10064;BME280;5071;52.360;13.134;2023-08-07T06:12:38;99882.72;;;22.05;68.17
10064;BME280;5071;52.360;13.134;2023-08-07T06:17:40;99875.94;;;20.18;73.90
10064;BME280;5071;52.360;13.134;2023-08-07T06:22:42;99875.78;;;18.78;81.14
10064;BME280;5071;52.360;13.134;2023-08-07T06:27:46;99889.78;;;18.22;84.18
10064;BME280;5071;52.360;13.134;2023-08-07T06:32:48;99913.03;;;18.08;83.45
10064;BME280;5071;52.360;13.134;2023-08-07T06:37:50;99917.53;;;17.91;85.09
10064;BME280;5071;52.360;13.134;2023-08-07T06:42:53;99913.69;;;18.11;85.62
10064;BME280;5071;52.360;13.134;2023-08-07T06:47:55;99925.66;;;18.21;85.11
10064;BME280;5071;52.360;13.134;2023-08-07T06:52:58;99913.81;;;17.94;83.88
10064;BME280;5071;52.360;13.134;2023-08-07T06:58:01;99922.53;;;18.29;81.63
10064;BME280;5071;52.360;13.134;2023-08-07T07:03:04;99932.16;;;18.33;82.04
10064;BME280;5071;52.360;13.134;2023-08-07T07:08:06;99934.72;;;18.97;80.49
10064;BME280;5071;52.360;13.134;2023-08-07T07:13:10;99937.38;;;19.41;78.34
10064;BME280;5071;52.360;13.134;2023-08-07T07:18:12;99943.16;;;19.64;76.33
10064;BME280;5071;52.360;13.134;2023-08-07T07:23:14;99940.38;;;19.51;76.32
10064;BME280;5071;52.360;13.134;2023-08-07T07:28:17;99955.28;;;19.57;74.27
10064;BME280;5071;52.360;13.134;2023-08-07T07:33:19;99960.66;;;20.14;72.01
10064;BME280;5071;52.360;13.134;2023-08-07T07:38:21;99949.13;;;19.98;72.42
10064;BME280;5071;52.360;13.134;2023-08-07T07:43:25;99957.78;;;19.74;73.57
10064;BME280;5071;52.360;13.134;2023-08-07T07:48:27;99949.97;;;20.40;72.49
10064;BME280;5071;52.360;13.134;2023-08-07T07:53:29;99959.50;;;19.47;74.94
10064;BME280;5071;52.360;13.134;2023-08-07T07:58:33;99961.19;;;19.19;78.16
10064;BME280;5071;52.360;13.134;2023-08-07T08:03:35;99968.41;;;18.88;77.99
10064;BME280;5071;52.360;13.134;2023-08-07T08:08:37;99972.91;;;19.18;76.99
10064;BME280;5071;52.360;13.134;2023-08-07T08:13:41;99978.63;;;19.42;73.38
10064;BME280;5071;52.360;13.134;2023-08-07T08:18:43;99974.38;;;20.51;72.37
10064;BME280;5071;52.360;13.134;2023-08-07T08:23:45;99974.94;;;19.88;73.23
10064;BME280;5071;52.360;13.134;2023-08-07T08:28:49;99982.22;;;19.71;73.18
10064;BME280;5071;52.360;13.134;2023-08-07T08:33:51;99974.63;;;20.48;71.32
10064;BME280;5071;52.360;13.134;2023-08-07T08:38:53;99972.72;;;21.82;66.35
10064;BME280;5071;52.360;13.134;2023-08-07T08:43:57;99992.72;;;20.46;68.99
10064;BME280;5071;52.360;13.134;2023-08-07T08:49:01;99997.41;;;19.72;72.89
10064;BME280;5071;52.360;13.134;2023-08-07T08:54:05;100002.50;;;19.18;74.01
10064;BME280;5071;52.360;13.134;2023-08-07T08:59:10;100005.19;;;20.06;72.25
10064;BME280;5071;52.360;13.134;2023-08-07T09:04:13;100008.13;;;19.43;72.18
10064;BME280;5071;52.360;13.134;2023-08-07T09:09:17;100005.78;;;19.23;74.88
10064;BME280;5071;52.360;13.134;2023-08-07T09:14:26;100006.38;;;19.42;71.25
10064;BME280;5071;52.360;13.134;2023-08-07T09:19:29;100005.03;;;20.50;69.85
10064;BME280;5071;52.360;13.134;2023-08-07T09:24:31;100003.50;;;20.46;66.97
10064;BME280;5071;52.360;13.134;2023-08-07T09:29:35;100010.44;;;20.50;67.07
10064;BME280;5071;52.360;13.134;2023-08-07T09:34:38;100036.22;;;20.40;66.63
10064;BME280;5071;52.360;13.134;2023-08-07T09:39:40;100024.81;;;20.08;67.72
10064;BME280;5071;52.360;13.134;2023-08-07T09:44:44;100028.00;;;20.14;68.38
10064;BME280;5071;52.360;13.134;2023-08-07T09:49:46;100029.31;;;20.36;68.00
10064;BME280;5071;52.360;13.134;2023-08-07T09:54:48;100033.78;;;20.23;68.26
10064;BME280;5071;52.360;13.134;2023-08-07T09:59:52;100020.72;;;20.44;65.11
10064;BME280;5071;52.360;13.134;2023-08-07T10:04:54;100014.97;;;21.17;62.94
10064;BME280;5071;52.360;13.134;2023-08-07T10:09:58;100031.06;;;21.71;60.73
10064;BME280;5071;52.360;13.134;2023-08-07T10:15:03;100034.00;;;21.81;60.85
10064;BME280;5071;52.360;13.134;2023-08-07T10:20:06;100031.72;;;21.49;60.63
10064;BME280;5071;52.360;13.134;2023-08-07T10:25:08;100041.44;;;21.12;61.03
10064;BME280;5071;52.360;13.134;2023-08-07T10:30:15;100033.47;;;21.89;60.18
10064;BME280;5071;52.360;13.134;2023-08-07T10:35:26;100027.44;;;20.92;62.75
10064;BME280;5071;52.360;13.134;2023-08-07T10:40:31;100025.06;;;20.88;62.79
10064;BME280;5071;52.360;13.134;2023-08-07T10:45:35;100035.72;;;21.16;60.40
10064;BME280;5071;52.360;13.134;2023-08-07T10:50:50;100048.50;;;21.00;61.94
10064;BME280;5071;52.360;13.134;2023-08-07T10:55:52;100041.34;;;20.30;64.55
10064;BME280;5071;52.360;13.134;2023-08-07T11:01:17;100034.63;;;20.23;66.01
10064;BME280;5071;52.360;13.134;2023-08-07T11:06:22;100014.63;;;20.69;64.60
10064;BME280;5071;52.360;13.134;2023-08-07T11:11:26;100016.56;;;20.94;63.17
10064;BME280;5071;52.360;13.134;2023-08-07T11:16:30;100016.06;;;20.18;64.64
10064;BME280;5071;52.360;13.134;2023-08-07T11:21:33;100031.41;;;19.45;71.84
10064;BME280;5071;52.360;13.134;2023-08-07T11:26:35;100036.78;;;18.68;81.82
10064;BME280;5071;52.360;13.134;2023-08-07T11:31:39;100033.97;;;19.46;81.05
10064;BME280;5071;52.360;13.134;2023-08-07T11:36:42;100033.88;;;19.92;78.28
10064;BME280;5071;52.360;13.134;2023-08-07T11:41:44;100030.41;;;20.75;73.24
10064;BME280;5071;52.360;13.134;2023-08-07T11:46:50;100023.34;;;20.45;72.15
10064;BME280;5071;52.360;13.134;2023-08-07T11:51:52;100029.16;;;19.37;77.21
10064;BME280;5071;52.360;13.134;2023-08-07T11:56:54;100018.72;;;20.62;73.99
10064;BME280;5071;52.360;13.134;2023-08-07T12:01:58;100010.91;;;21.24;65.32
10064;BME280;5071;52.360;13.134;2023-08-07T12:07:01;100015.13;;;21.41;62.71
10064;BME280;5071;52.360;13.134;2023-08-07T12:12:03;100010.50;;;21.30;62.30
10064;BME280;5071;52.360;13.134;2023-08-07T12:17:08;100001.25;;;21.47;61.21
10064;BME280;5071;52.360;13.134;2023-08-07T12:22:11;100021.09;;;22.23;60.68
10064;BME280;5071;52.360;13.134;2023-08-07T12:27:13;100035.81;;;20.75;61.45
10064;BME280;5071;52.360;13.134;2023-08-07T12:32:17;100045.53;;;20.07;64.57
10064;BME280;5071;52.360;13.134;2023-08-07T12:37:19;100051.28;;;20.30;66.01
10064;BME280;5071;52.360;13.134;2023-08-07T12:42:21;100042.41;;;22.02;64.43
10064;BME280;5071;52.360;13.134;2023-08-07T12:47:27;100047.19;;;21.20;66.63
10064;BME280;5071;52.360;13.134;2023-08-07T12:52:29;100053.00;;;21.54;66.35
10064;BME280;5071;52.360;13.134;2023-08-07T12:57:32;100055.72;;;21.80;64.75
10064;BME280;5071;52.360;13.134;2023-08-07T13:02:35;100052.69;;;22.10;64.84
10064;BME280;5071;52.360;13.134;2023-08-07T13:07:38;100052.03;;;22.32;63.36
10064;BME280;5071;52.360;13.134;2023-08-07T13:12:42;100070.63;;;21.72;64.72
10064;BME280;5071;52.360;13.134;2023-08-07T13:17:45;100090.25;;;20.94;70.19
10064;BME280;5071;52.360;13.134;2023-08-07T13:22:48;100096.09;;;20.74;75.79
10064;BME280;5071;52.360;13.134;2023-08-07T13:27:50;100085.72;;;21.49;72.92
10064;BME280;5071;52.360;13.134;2023-08-07T13:32:54;100094.53;;;22.04;72.14
10064;BME280;5071;52.360;13.134;2023-08-07T13:37:56;100101.97;;;22.13;67.59
10064;BME280;5071;52.360;13.134;2023-08-07T13:42:58;100097.03;;;22.07;66.09
10064;BME280;5071;52.360;13.134;2023-08-07T13:48:02;100106.28;;;22.16;65.63
10064;BME280;5071;52.360;13.134;2023-08-07T13:53:05;100099.81;;;22.31;64.49
10064;BME280;5071;52.360;13.134;2023-08-07T13:58:16;100110.41;;;22.47;60.99
10064;BME280;5071;52.360;13.134;2023-08-07T14:03:20;100106.81;;;22.97;53.88
10064;BME280;5071;52.360;13.134;2023-08-07T14:08:23;100105.19;;;23.07;56.34
10064;BME280;5071;52.360;13.134;2023-08-07T14:13:26;100126.16;;;23.16;57.78
10064;BME280;5071;52.360;13.134;2023-08-07T14:18:29;100135.25;;;21.76;56.75
10064;BME280;5071;52.360;13.134;2023-08-07T14:23:32;100147.81;;;21.22;58.91
10064;BME280;5071;52.360;13.134;2023-08-07T14:28:35;100168.25;;;20.56;61.38
10064;BME280;5071;52.360;13.134;2023-08-07T14:33:39;100195.22;;;19.97;60.77
10064;BME280;5071;52.360;13.134;2023-08-07T14:38:41;100193.06;;;19.73;60.28
10064;BME280;5071;52.360;13.134;2023-08-07T14:43:43;100200.50;;;20.43;56.21
10064;BME280;5071;52.360;13.134;2023-08-07T14:48:47;100208.44;;;21.31;52.25
10064;BME280;5071;52.360;13.134;2023-08-07T14:53:49;100199.97;;;21.64;51.57
10064;BME280;5071;52.360;13.134;2023-08-07T14:58:51;100208.88;;;21.10;51.36
10064;BME280;5071;52.360;13.134;2023-08-07T15:03:55;100209.28;;;20.90;51.61
10064;BME280;5071;52.360;13.134;2023-08-07T15:08:58;100223.75;;;20.74;51.40
10064;BME280;5071;52.360;13.134;2023-08-07T15:13:59;100227.25;;;21.18;50.58
10064;BME280;5071;52.360;13.134;2023-08-07T15:19:03;100250.97;;;21.13;49.38
10064;BME280;5071;52.360;13.134;2023-08-07T15:24:05;100223.84;;;21.70;49.56
10064;BME280;5071;52.360;13.134;2023-08-07T15:29:08;100226.09;;;21.64;50.23
10064;BME280;5071;52.360;13.134;2023-08-07T15:34:11;100240.53;;;20.49;51.53
10064;BME280;5071;52.360;13.134;2023-08-07T15:39:13;100251.22;;;19.92;54.83
10064;BME280;5071;52.360;13.134;2023-08-07T15:44:15;100253.22;;;20.18;55.22
10064;BME280;5071;52.360;13.134;2023-08-07T15:49:19;100261.66;;;20.43;55.32
10064;BME280;5071;52.360;13.134;2023-08-07T15:54:21;100250.84;;;19.98;56.20
10064;BME280;5071;52.360;13.134;2023-08-07T15:59:24;100279.22;;;19.41;55.32
10064;BME280;5071;52.360;13.134;2023-08-07T16:04:28;100273.25;;;18.87;57.50
10064;BME280;5071;52.360;13.134;2023-08-07T16:09:30;100276.50;;;19.10;55.49
10064;BME280;5071;52.360;13.134;2023-08-07T16:14:33;100285.28;;;19.61;52.17
10064;BME280;5071;52.360;13.134;2023-08-07T16:19:39;100272.78;;;19.92;51.58
10064;BME280;5071;52.360;13.134;2023-08-07T16:24:42;100261.31;;;19.88;52.89
10064;BME280;5071;52.360;13.134;2023-08-07T16:29:44;100287.03;;;19.30;55.14
10064;BME280;5071;52.360;13.134;2023-08-07T16:34:48;100285.06;;;18.84;54.89
10064;BME280;5071;52.360;13.134;2023-08-07T16:39:50;100293.84;;;19.20;56.02
10064;BME280;5071;52.360;13.134;2023-08-07T16:44:52;100286.50;;;19.39;56.08
10064;BME280;5071;52.360;13.134;2023-08-07T16:49:56;100301.16;;;19.18;55.98
10064;BME280;5071;52.360;13.134;2023-08-07T16:54:58;100313.22;;;19.11;56.42
10064;BME280;5071;52.360;13.134;2023-08-07T17:00:00;100310.13;;;18.68;57.25
10064;BME280;5071;52.360;13.134;2023-08-07T17:05:04;100318.97;;;18.52;57.91
10064;BME280;5071;52.360;13.134;2023-08-07T17:10:08;100317.06;;;19.22;58.11
10064;BME280;5071;52.360;13.134;2023-08-07T17:15:10;100323.56;;;18.85;58.15
10064;BME280;5071;52.360;13.134;2023-08-07T17:20:14;100329.38;;;19.27;56.68
10064;BME280;5071;52.360;13.134;2023-08-07T17:25:16;100337.53;;;19.25;56.98
10064;BME280;5071;52.360;13.134;2023-08-07T17:30:18;100350.28;;;18.53;54.80
10064;BME280;5071;52.360;13.134;2023-08-07T17:35:21;100362.22;;;17.94;54.29
10064;BME280;5071;52.360;13.134;2023-08-07T17:40:24;100383.34;;;18.38;53.86
10064;BME280;5071;52.360;13.134;2023-08-07T17:45:26;100377.91;;;18.03;54.13
10064;BME280;5071;52.360;13.134;2023-08-07T17:50:29;100372.50;;;17.85;55.07
10064;BME280;5071;52.360;13.134;2023-08-07T17:55:31;100369.63;;;17.51;56.93
10064;BME280;5071;52.360;13.134;2023-08-07T18:00:35;100376.09;;;17.46;56.87
10064;BME280;5071;52.360;13.134;2023-08-07T18:05:38;100379.78;;;17.25;58.46
10064;BME280;5071;52.360;13.134;2023-08-07T18:10:40;100361.66;;;17.30;59.54
10064;BME280;5071;52.360;13.134;2023-08-07T18:15:42;100380.22;;;17.35;59.39
10064;BME280;5071;52.360;13.134;2023-08-07T18:20:46;100386.56;;;17.13;60.59
10064;BME280;5071;52.360;13.134;2023-08-07T18:25:48;100397.13;;;16.97;61.50
10064;BME280;5071;52.360;13.134;2023-08-07T18:30:50;100407.97;;;16.94;62.32
10064;BME280;5071;52.360;13.134;2023-08-07T18:35:54;100418.34;;;17.02;62.09
10064;BME280;5071;52.360;13.134;2023-08-07T18:40:56;100406.38;;;16.90;62.44
10064;BME280;5071;52.360;13.134;2023-08-07T18:45:58;100416.47;;;16.83;62.89
10064;BME280;5071;52.360;13.134;2023-08-07T18:51:01;100426.56;;;16.77;63.06
10064;BME280;5071;52.360;13.134;2023-08-07T18:56:03;100423.34;;;16.68;62.98
10064;BME280;5071;52.360;13.134;2023-08-07T19:01:06;100434.28;;;16.42;64.68
10064;BME280;5071;52.360;13.134;2023-08-07T19:06:09;100440.59;;;16.41;64.66
10064;BME280;5071;52.360;13.134;2023-08-07T19:11:11;100446.19;;;16.57;64.02
10064;BME280;5071;52.360;13.134;2023-08-07T19:16:13;100445.78;;;16.66;63.88
10064;BME280;5071;52.360;13.134;2023-08-07T19:21:16;100451.16;;;16.66;64.37
10064;BME280;5071;52.360;13.134;2023-08-07T19:26:18;100479.63;;;16.68;64.87
10064;BME280;5071;52.360;13.134;2023-08-07T19:31:20;100463.13;;;16.57;66.01
10064;BME280;5071;52.360;13.134;2023-08-07T19:36:23;100477.09;;;16.65;66.21
10064;BME280;5071;52.360;13.134;2023-08-07T19:41:26;100477.09;;;16.43;67.45
10064;BME280;5071;52.360;13.134;2023-08-07T19:46:28;100475.53;;;16.38;67.97
10064;BME280;5071;52.360;13.134;2023-08-07T19:51:31;100474.25;;;16.26;66.03
10064;BME280;5071;52.360;13.134;2023-08-07T19:56:33;100488.16;;;16.12;66.30
10064;BME280;5071;52.360;13.134;2023-08-07T20:01:37;100490.53;;;15.98;67.53
10064;BME280;5071;52.360;13.134;2023-08-07T20:06:40;100485.88;;;15.79;67.65
10064;BME280;5071;52.360;13.134;2023-08-07T20:11:43;100493.50;;;15.65;68.63
10064;BME280;5071;52.360;13.134;2023-08-07T20:16:45;100495.72;;;15.79;67.88
10064;BME280;5071;52.360;13.134;2023-08-07T20:21:48;100495.41;;;15.86;67.96
10064;BME280;5071;52.360;13.134;2023-08-07T20:26:51;100505.31;;;15.84;68.18
10064;BME280;5071;52.360;13.134;2023-08-07T20:31:53;100517.34;;;15.71;69.07
10064;BME280;5071;52.360;13.134;2023-08-07T20:36:56;100519.91;;;15.50;69.81
10064;BME280;5071;52.360;13.134;2023-08-07T20:41:58;100529.22;;;15.39;70.28
10064;BME280;5071;52.360;13.134;2023-08-07T20:47:00;100523.13;;;15.35;70.85
10064;BME280;5071;52.360;13.134;2023-08-07T20:52:05;100531.63;;;15.46;71.05
10064;BME280;5071;52.360;13.134;2023-08-07T20:57:08;100530.53;;;15.52;70.88
10064;BME280;5071;52.360;13.134;2023-08-07T21:02:10;100522.78;;;15.44;71.78
10064;BME280;5071;52.360;13.134;2023-08-07T21:07:14;100529.41;;;15.34;73.31
10064;BME280;5071;52.360;13.134;2023-08-07T21:12:16;100527.31;;;15.42;74.07
10064;BME280;5071;52.360;13.134;2023-08-07T21:17:18;100519.53;;;15.36;74.75
10064;BME280;5071;52.360;13.134;2023-08-07T21:22:22;100518.19;;;15.24;75.16
10064;BME280;5071;52.360;13.134;2023-08-07T21:27:24;100527.47;;;15.12;75.42
10064;BME280;5071;52.360;13.134;2023-08-07T21:32:26;100517.06;;;15.05;76.32
10064;BME280;5071;52.360;13.134;2023-08-07T21:37:31;100520.53;;;15.07;77.08
10064;BME280;5071;52.360;13.134;2023-08-07T21:42:33;100521.16;;;14.88;77.78
10064;BME280;5071;52.360;13.134;2023-08-07T21:47:35;100529.31;;;14.85;77.97
10064;BME280;5071;52.360;13.134;2023-08-07T21:52:39;100523.69;;;14.93;77.93
10064;BME280;5071;52.360;13.134;2023-08-07T21:57:41;100527.59;;;15.09;76.94
10064;BME280;5071;52.360;13.134;2023-08-07T22:02:45;100526.66;;;15.10;77.13
10064;BME280;5071;52.360;13.134;2023-08-07T22:07:49;100537.97;;;15.19;77.00
10064;BME280;5071;52.360;13.134;2023-08-07T22:12:51;100535.63;;;15.09;77.72
10064;BME280;5071;52.360;13.134;2023-08-07T22:17:54;100530.34;;;14.81;78.64
10064;BME280;5071;52.360;13.134;2023-08-07T22:22:59;100541.38;;;14.70;79.46
10064;BME280;5071;52.360;13.134;2023-08-07T22:28:01;100534.84;;;14.51;80.46
10064;BME280;5071;52.360;13.134;2023-08-07T22:33:04;100546.81;;;14.67;79.21
10064;BME280;5071;52.360;13.134;2023-08-07T22:38:07;100543.31;;;14.65;78.86
10064;BME280;5071;52.360;13.134;2023-08-07T22:43:09;100543.22;;;14.68;78.48
10064;BME280;5071;52.360;13.134;2023-08-07T22:48:13;100528.50;;;14.55;79.11
10064;BME280;5071;52.360;13.134;2023-08-07T22:53:17;100543.88;;;14.47;78.23
10064;BME280;5071;52.360;13.134;2023-08-07T22:58:19;100527.44;;;14.32;78.51
10064;BME280;5071;52.360;13.134;2023-08-07T23:03:21;100541.72;;;14.30;78.06
10064;BME280;5071;52.360;13.134;2023-08-07T23:08:25;100537.81;;;14.42;77.17
10064;BME280;5071;52.360;13.134;2023-08-07T23:13:27;100546.03;;;14.64;75.98
10064;BME280;5071;52.360;13.134;2023-08-07T23:18:29;100548.44;;;14.71;75.80
10064;BME280;5071;52.360;13.134;2023-08-07T23:23:33;100548.66;;;14.65;76.40
10064;BME280;5071;52.360;13.134;2023-08-07T23:28:35;100544.34;;;14.61;76.75
10064;BME280;5071;52.360;13.134;2023-08-07T23:33:37;100531.25;;;14.24;78.41
10064;BME280;5071;52.360;13.134;2023-08-07T23:38:41;100523.72;;;14.08;79.34
10064;BME280;5071;52.360;13.134;2023-08-07T23:43:43;100513.75;;;13.85;80.27
10064;BME280;5071;52.360;13.134;2023-08-07T23:48:45;100522.72;;;13.81;80.19
10064;BME280;5071;52.360;13.134;2023-08-07T23:53:48;100525.66;;;13.72;80.61
10064;BME280;5071;52.360;13.134;2023-08-07T23:58:51;100522.16;;;13.70;79.99
